Loznica, Serbia
Current Conditions -  °F | °C
As of 12:00 PM on Monday 22 Dec 2014 (Local Time) from LQTZ Reporting Station
Haze Haze  
Wind Chill:   Ceiling: Unl
Heat Index:   Visibility: 1.2mi
Dew Point:   Wind: 3mph
Humidity: 87%   Direction: 230°SW
Pressure: 30.33"   Gusts: NA
Location:  44.53°N, 19.22°E
Report Text: LQTZ 221000Z 23003KT 200V270 2000 BR NSC 03/01 Q1027
Loading
Personal Weather Stations






























Interactive Weather Map New forecast layout! Learn more

10-Day Weather Forecast

Advertisements
Track Severe Weather on mobile